Terminal Aerodrome Forecast
Issued by NWS

Home | Current Version | Previous Version | Text Only | Print | Product List | Glossary On
Versions: 1 2 3 4 5 6 7 8 9 10 11 12 13 14 15 16 17 18 19 20 21 22 23 24 25 26 27 28 29 30 31 32
000
FTUS44 KFWD 232050 AAA
TAFGKY
TAF AMD
KGKY 232050Z 2321/2418 18015KT P6SM BKN045
     FM240100 16009KT P6SM SCT250
     FM241100 18009KT P6SM BKN015
     FM241600 18011KT P6SM SCT030=

USA.gov is the U.S. government's official web portal to all federal, state and local government web resources and services.